Time;durP1;ratioP1;P1;durP2;ratioP2;P2;SDS_P1;SDS_P2;PMS_P1;PMS_P2;Temp;Humidity;BMP_temperature;BMP_pressure;BME280_temperature;BME280_humidity;BME280_pressure;Samples;Min_cycle;Max_cycle;Signal;HPM_P1;HPM_P2
2023/07/09 00:01:36;;;;;;;;;;;;;;;;;;1729538;74;42003;-66
2023/07/09 00:04:05;;;;;;;;;;;;;;;;;;1729616;82;41819;-67
2023/07/09 00:06:33;;;;;;;;;;;;;;;;;;1729332;74;41646;-66
2023/07/09 00:09:02;;;;;;;;;;;;;;;;;;1728248;74;41958;-67
2023/07/09 00:11:30;;;;;;;;;;;;;;;;;;1729378;82;42161;-66
2023/07/09 00:13:58;;;;;;;;;;;;;;;;;;1729608;82;49868;-65
2023/07/09 00:16:27;;;;;;;;;;;;;;;;;;1729778;74;41769;-65
2023/07/09 00:18:55;;;;;;;;;;;;;;;;;;1729035;82;41756;-65
2023/07/09 00:21:24;;;;;;;;;;;;;;;;;;1729715;74;41495;-67
2023/07/09 00:23:52;;;;;;;;;;;;;;;;;;1730371;74;41662;-66
2023/07/09 00:26:23;;;;;;;;;;;;;;;;;;1728715;82;49325;-67
2023/07/09 00:28:51;;;;;;;;;;;;;;;;;;1728854;82;50117;-66
2023/07/09 00:31:19;;;;;;;;;;;;;;;;;;1729056;74;41825;-66
2023/07/09 00:33:48;;;;;;;;;;;;;;;;;;1729493;82;42123;-66
2023/07/09 00:36:16;;;;;;;;;;;;;;;;;;1729297;82;41915;-66
2023/07/09 00:38:47;;;;;;;;;;;;;;;;;;1729287;82;42115;-67
2023/07/09 00:41:17;;;;;;;;;;;;;;;;;;1729056;82;49924;-65
2023/07/09 00:43:45;;;;;;;;;;;;;;;;;;1729384;74;42066;-67
2023/07/09 00:46:14;;;;;;;;;;;;;;;;;;1729382;82;42041;-66
2023/07/09 00:48:42;;;;;;;;;;;;;;;;;;1728930;74;42074;-65
2023/07/09 00:51:11;;;;;;;;;;;;;;;;;;1729384;74;42155;-66
2023/07/09 00:53:45;;;;;;;;;;;;;;;;;;1729354;82;50382;-65
2023/07/09 00:56:14;;;;;;;;;;;;;;;;;;1729062;74;49893;-66
2023/07/09 00:58:42;;;;;;;;;;;;;;;;;;1728652;74;41706;-66
2023/07/09 01:01:11;;;;;;;;;;;;;;;;;;1729400;74;42036;-67
2023/07/09 01:03:41;;;;;;;;;;;;;;;;;;1729290;74;42152;-66
2023/07/09 01:06:09;;;;;;;;;;;;;;;;;;1729175;74;41998;-65
2023/07/09 01:08:38;;;;;;;;;;;;;;;;;;1729297;74;42472;-66
2023/07/09 01:11:08;;;;;;;;;;;;;;;;;;1729029;82;50129;-66
2023/07/09 01:13:39;;;;;;;;;;;;;;;;;;1728621;74;49765;-66
2023/07/09 01:16:08;;;;;;;;;;;;;;;;;;1728999;82;50372;-65
2023/07/09 01:18:36;;;;;;;;;;;;;;;;;;1728528;82;41862;-65
2023/07/09 01:21:05;;;;;;;;;;;;;;;;;;1729162;74;42422;-66
2023/07/09 01:23:33;;;;;;;;;;;;;;;;;;1729481;74;42031;-66
2023/07/09 01:26:02;;;;;;;;;;;;;;;;;;1729452;74;42110;-67
2023/07/09 01:28:31;;;;;;;;;;;;;;;;;;1728581;82;49872;-67
2023/07/09 01:31:00;;;;;;;;;;;;;;;;;;1730141;74;41774;-66
2023/07/09 01:33:28;;;;;;;;;;;;;;;;;;1730649;74;41680;-67
2023/07/09 01:36:00;;;;;;;;;;;;;;;;;;1729653;74;41667;-66
2023/07/09 01:38:30;;;;;;;;;;;;;;;;;;1729310;82;42112;-65
2023/07/09 01:40:59;;;;;;;;;;;;;;;;;;1729832;82;42741;-67
2023/07/09 01:43:27;;;;;;;;;;;;;;;;;;1729560;74;41648;-64
2023/07/09 01:45:57;;;;;;;;;;;;;;;;;;1729571;82;41643;-67
2023/07/09 01:48:25;;;;;;;;;;;;;;;;;;1729376;82;41645;-65
2023/07/09 01:50:54;;;;;;;;;;;;;;;;;;1729668;74;50757;-64
2023/07/09 01:53:23;;;;;;;;;;;;;;;;;;1729673;82;41982;-67
2023/07/09 01:55:51;;;;;;;;;;;;;;;;;;1729441;82;42594;-67
2023/07/09 01:58:24;;;;;;;;;;;;;;;;;;1728835;74;41837;-66
2023/07/09 02:00:53;;;;;;;;;;;;;;;;;;1729564;74;41685;-66
2023/07/09 02:03:22;;;;;;;;;;;;;;;;;;1729409;82;41972;-67
2023/07/09 02:05:51;;;;;;;;;;;;;;;;;;1729287;74;42662;-66
2023/07/09 02:08:19;;;;;;;;;;;;;;;;;;1728608;82;43413;-65
2023/07/09 02:10:48;;;;;;;;;;;;;;;;;;1730145;82;41811;-65
2023/07/09 02:13:16;;;;;;;;;;;;;;;;;;1729559;82;50100;-66
2023/07/09 02:15:45;;;;;;;;;;;;;;;;;;1729129;82;42340;-64
2023/07/09 02:18:13;;;;;;;;;;;;;;;;;;1728956;74;42115;-67
2023/07/09 02:20:41;;;;;;;;;;;;;;;;;;1729229;82;42281;-65
2023/07/09 02:23:10;;;;;;;;;;;;;;;;;;1730254;74;42348;-66
2023/07/09 02:25:38;;;;;;;;;;;;;;;;;;1725595;82;50103;-64
2023/07/09 02:28:06;;;;;;;;;;;;;;;;;;1728751;74;42816;-67
2023/07/09 02:30:35;;;;;;;;;;;;;;;;;;1729207;82;42676;-67
2023/07/09 02:33:03;;;;;;;;;;;;;;;;;;1729473;82;42020;-67
2023/07/09 02:35:32;;;;;;;;;;;;;;;;;;1729881;74;42370;-66
2023/07/09 02:38:00;;;;;;;;;;;;;;;;;;1728584;82;50304;-67
2023/07/09 02:40:28;;;;;;;;;;;;;;;;;;1729803;82;41725;-67
2023/07/09 02:42:57;;;;;;;;;;;;;;;;;;1729415;74;42205;-66
2023/07/09 02:45:25;;;;;;;;;;;;;;;;;;1729621;82;42054;-66
2023/07/09 02:47:54;;;;;;;;;;;;;;;;;;1729944;82;42203;-67
2023/07/09 02:50:22;;;;;;;;;;;;;;;;;;1728667;82;50062;-66
2023/07/09 02:52:50;;;;;;;;;;;;;;;;;;1729534;74;41681;-65
2023/07/09 02:55:19;;;;;;;;;;;;;;;;;;1729686;74;41793;-66
2023/07/09 02:57:47;;;;;;;;;;;;;;;;;;1729154;82;41950;-67
2023/07/09 03:00:15;;;;;;;;;;;;;;;;;;1729277;74;41625;-66
2023/07/09 03:02:44;;;;;;;;;;;;;;;;;;1729357;74;49896;-68
2023/07/09 03:05:12;;;;;;;;;;;;;;;;;;1729079;82;41738;-64
2023/07/09 03:07:41;;;;;;;;;;;;;;;;;;1728664;82;42111;-65
2023/07/09 03:10:09;;;;;;;;;;;;;;;;;;1728666;74;41647;-65
2023/07/09 03:12:38;;;;;;;;;;;;;;;;;;1729984;74;42362;-64
2023/07/09 03:15:06;;;;;;;;;;;;;;;;;;1729166;82;50276;-66
2023/07/09 03:17:35;;;;;;;;;;;;;;;;;;1729359;82;41913;-67
2023/07/09 03:20:03;;;;;;;;;;;;;;;;;;1728533;74;42304;-66
2023/07/09 03:22:32;;;;;;;;;;;;;;;;;;1729234;74;42005;-65
2023/07/09 03:25:01;;;;;;;;;;;;;;;;;;1729922;74;41939;-66
2023/07/09 03:27:29;;;;;;;;;;;;;;;;;;1728852;74;49882;-65
2023/07/09 03:29:57;;;;;;;;;;;;;;;;;;1727988;82;42182;-66
2023/07/09 03:32:26;;;;;;;;;;;;;;;;;;1729209;82;42132;-66
2023/07/09 03:34:55;;;;;;;;;;;;;;;;;;1729278;82;42134;-66
2023/07/09 03:37:23;;;;;;;;;;;;;;;;;;1729376;82;41742;-66
2023/07/09 03:39:51;;;;;;;;;;;;;;;;;;1728123;74;50580;-66
2023/07/09 03:42:20;;;;;;;;;;;;;;;;;;1729342;74;41677;-66
2023/07/09 03:44:48;;;;;;;;;;;;;;;;;;1729035;82;41997;-67
2023/07/09 03:47:17;;;;;;;;;;;;;;;;;;1728613;74;42095;-66
2023/07/09 03:49:46;;;;;;;;;;;;;;;;;;1728672;82;42372;-66
2023/07/09 03:52:14;;;;;;;;;;;;;;;;;;1729438;74;49001;-66
2023/07/09 03:54:43;;;;;;;;;;;;;;;;;;1729435;74;41654;-66
2023/07/09 03:57:11;;;;;;;;;;;;;;;;;;1729190;74;41721;-64
2023/07/09 03:59:40;;;;;;;;;;;;;;;;;;1728465;74;42008;-64
2023/07/09 04:02:08;;;;;;;;;;;;;;;;;;1729906;82;41595;-65
2023/07/09 04:04:36;;;;;;;;;;;;;;;;;;1728410;74;50263;-67
2023/07/09 04:07:05;;;;;;;;;;;;;;;;;;1729218;74;42502;-64
2023/07/09 04:09:33;;;;;;;;;;;;;;;;;;1728441;82;41625;-66
2023/07/09 04:12:02;;;;;;;;;;;;;;;;;;1729599;74;41700;-65
2023/07/09 04:14:31;;;;;;;;;;;;;;;;;;1729377;82;42183;-66
2023/07/09 04:16:59;;;;;;;;;;;;;;;;;;1728769;82;50584;-66
2023/07/09 04:19:28;;;;;;;;;;;;;;;;;;1728012;74;42163;-66
2023/07/09 04:21:56;;;;;;;;;;;;;;;;;;1728445;82;41983;-66
2023/07/09 04:24:27;;;;;;;;;;;;;;;;;;1729417;74;41861;-66
2023/07/09 04:26:56;;;;;;;;;;;;;;;;;;1728350;82;41818;-64
2023/07/09 04:29:24;;;;;;;;;;;;;;;;;;1728876;74;42064;-67
2023/07/09 04:31:53;;;;;;;;;;;;;;;;;;1729338;82;42407;-67
2023/07/09 04:34:21;;;;;;;;;;;;;;;;;;1729199;74;49776;-67
2023/07/09 04:36:50;;;;;;;;;;;;;;;;;;1729486;74;42088;-65
2023/07/09 04:39:18;;;;;;;;;;;;;;;;;;1729539;74;41711;-67
2023/07/09 04:41:46;;;;;;;;;;;;;;;;;;1729881;82;41628;-68
2023/07/09 04:44:15;;;;;;;;;;;;;;;;;;1730320;74;41753;-67
2023/07/09 04:46:43;;;;;;;;;;;;;;;;;;1729292;82;49932;-66
2023/07/09 04:49:12;;;;;;;;;;;;;;;;;;1729064;74;42139;-69
2023/07/09 04:51:41;;;;;;;;;;;;;;;;;;1729105;74;42133;-67
2023/07/09 04:54:09;;;;;;;;;;;;;;;;;;1729136;82;41603;-67
2023/07/09 04:56:38;;;;;;;;;;;;;;;;;;1729656;82;42098;-67
2023/07/09 04:59:06;;;;;;;;;;;;;;;;;;1728757;82;51107;-67
2023/07/09 05:01:35;;;;;;;;;;;;;;;;;;1728680;82;41977;-67
2023/07/09 05:04:03;;;;;;;;;;;;;;;;;;1729324;74;42051;-68
2023/07/09 05:06:31;;;;;;;;;;;;;;;;;;1728475;74;41863;-69
2023/07/09 05:09:00;;;;;;;;;;;;;;;;;;1729616;74;42232;-66
2023/07/09 05:11:28;;;;;;;;;;;;;;;;;;1729609;82;50670;-67
2023/07/09 05:13:56;;;;;;;;;;;;;;;;;;1730007;74;41692;-66
2023/07/09 05:16:25;;;;;;;;;;;;;;;;;;1729024;74;41839;-67
2023/07/09 05:18:53;;;;;;;;;;;;;;;;;;1729080;74;41786;-66
2023/07/09 05:21:22;;;;;;;;;;;;;;;;;;1729271;82;41644;-64
2023/07/09 05:23:50;;;;;;;;;;;;;;;;;;1728809;74;49840;-68
2023/07/09 05:26:18;;;;;;;;;;;;;;;;;;1729087;82;41939;-67
2023/07/09 05:28:47;;;;;;;;;;;;;;;;;;1729101;82;41447;-65
2023/07/09 05:31:15;;;;;;;;;;;;;;;;;;1729265;74;41905;-67
2023/07/09 05:33:44;;;;;;;;;;;;;;;;;;1729180;74;43126;-67
2023/07/09 05:36:15;;;;;;;;;;;;;;;;;;1728971;82;51007;-66
2023/07/09 05:38:43;;;;;;;;;;;;;;;;;;1728762;82;50103;-66
2023/07/09 05:41:12;;;;;;;;;;;;;;;;;;1730133;74;42556;-67
2023/07/09 05:43:40;;;;;;;;;;;;;;;;;;1729979;74;41738;-66
2023/07/09 05:46:09;;;;;;;;;;;;;;;;;;1729729;82;41705;-65
2023/07/09 05:48:37;;;;;;;;;;;;;;;;;;1730022;82;41824;-67
2023/07/09 05:51:06;;;;;;;;;;;;;;;;;;1731229;82;49880;-67
2023/07/09 05:53:34;;;;;;;;;;;;;;;;;;1729903;82;42323;-66
2023/07/09 05:56:03;;;;;;;;;;;;;;;;;;1729285;82;42299;-67
2023/07/09 05:58:31;;;;;;;;;;;;;;;;;;1729093;74;42376;-67
2023/07/09 06:00:59;;;;;;;;;;;;;;;;;;1730252;74;42112;-67
2023/07/09 06:03:28;;;;;;;;;;;;;;;;;;1729136;82;49502;-67
2023/07/09 06:05:57;;;;;;;;;;;;;;;;;;1729839;74;41925;-65
2023/07/09 06:08:26;;;;;;;;;;;;;;;;;;1728623;82;41642;-66
2023/07/09 06:10:54;;;;;;;;;;;;;;;;;;1729133;74;41890;-66
2023/07/09 06:13:23;;;;;;;;;;;;;;;;;;1729612;74;42076;-64
2023/07/09 06:15:51;;;;;;;;;;;;;;;;;;1729445;82;41411;-66
2023/07/09 06:18:20;;;;;;;;;;;;;;;;;;1728746;82;49876;-67
2023/07/09 06:20:49;;;;;;;;;;;;;;;;;;1729860;74;42065;-68
2023/07/09 06:23:17;;;;;;;;;;;;;;;;;;1729672;82;42179;-66
2023/07/09 06:25:47;;;;;;;;;;;;;;;;;;1729316;74;41630;-65
2023/07/09 06:28:15;;;;;;;;;;;;;;;;;;1728396;82;41980;-66
2023/07/09 06:30:44;;;;;;;;;;;;;;;;;;1730028;74;42251;-66
2023/07/09 06:33:12;;;;;;;;;;;;;;;;;;1729101;82;49906;-66
2023/07/09 06:35:41;;;;;;;;;;;;;;;;;;1729078;82;41913;-64
2023/07/09 06:38:09;;;;;;;;;;;;;;;;;;1728432;82;42099;-66
2023/07/09 06:40:38;;;;;;;;;;;;;;;;;;1729416;82;42262;-66
2023/07/09 06:43:06;;;;;;;;;;;;;;;;;;1729901;74;41489;-65
2023/07/09 06:45:34;;;;;;;;;;;;;;;;;;1729449;74;49873;-65
2023/07/09 06:48:03;;;;;;;;;;;;;;;;;;1728312;74;41657;-67
2023/07/09 06:50:32;;;;;;;;;;;;;;;;;;1729481;75;41942;-66
2023/07/09 06:53:00;;;;;;;;;;;;;;;;;;1729286;82;42092;-65
2023/07/09 06:55:28;;;;;;;;;;;;;;;;;;1729419;82;42124;-65
2023/07/09 06:57:57;;;;;;;;;;;;;;;;;;1728959;74;50208;-66
2023/07/09 07:00:25;;;;;;;;;;;;;;;;;;1728896;74;42094;-66
2023/07/09 07:02:54;;;;;;;;;;;;;;;;;;1728961;74;42100;-66
2023/07/09 07:05:22;;;;;;;;;;;;;;;;;;1728830;82;42294;-65
2023/07/09 07:07:50;;;;;;;;;;;;;;;;;;1729008;74;41986;-66
2023/07/09 07:10:19;;;;;;;;;;;;;;;;;;1728759;82;50168;-65
2023/07/09 07:12:48;;;;;;;;;;;;;;;;;;1729498;82;42007;-64
2023/07/09 07:15:16;;;;;;;;;;;;;;;;;;1729562;74;41613;-65
2023/07/09 07:17:45;;;;;;;;;;;;;;;;;;1729306;82;42268;-64
2023/07/09 07:20:13;;;;;;;;;;;;;;;;;;1729408;74;41667;-64
2023/07/09 07:22:42;;;;;;;;;;;;;;;;;;1729465;74;50741;-65
2023/07/09 07:25:11;;;;;;;;;;;;;;;;;;1729390;74;42262;-65
2023/07/09 07:27:39;;;;;;;;;;;;;;;;;;1728605;74;41898;-66
2023/07/09 07:30:08;;;;;;;;;;;;;;;;;;1729038;82;41608;-65
2023/07/09 07:32:37;;;;;;;;;;;;;;;;;;1730150;82;42132;-65
2023/07/09 07:35:05;;;;;;;;;;;;;;;;;;1729263;82;49924;-67
2023/07/09 07:37:33;;;;;;;;;;;;;;;;;;1729381;74;41737;-66
2023/07/09 07:40:04;;;;;;;;;;;;;;;;;;1728465;74;42283;-66
2023/07/09 07:42:32;;;;;;;;;;;;;;;;;;1729394;82;42079;-66
2023/07/09 07:45:01;;;;;;;;;;;;;;;;;;1729084;74;41761;-66
2023/07/09 07:47:29;;;;;;;;;;;;;;;;;;1729260;82;41986;-66
2023/07/09 07:49:58;;;;;;;;;;;;;;;;;;1728461;74;49891;-66
2023/07/09 07:52:27;;;;;;;;;;;;;;;;;;1729644;82;42041;-67
2023/07/09 07:54:56;;;;;;;;;;;;;;;;;;1729582;74;41892;-66
2023/07/09 07:57:24;;;;;;;;;;;;;;;;;;1729246;74;41870;-65
2023/07/09 07:59:52;;;;;;;;;;;;;;;;;;1728798;74;42350;-65
2023/07/09 08:02:21;;;;;;;;;;;;;;;;;;1729266;74;50112;-66
2023/07/09 08:04:50;;;;;;;;;;;;;;;;;;1729270;74;42276;-67
2023/07/09 08:07:18;;;;;;;;;;;;;;;;;;1729288;82;42200;-65
2023/07/09 08:09:47;;;;;;;;;;;;;;;;;;1728612;74;41743;-65
2023/07/09 08:12:15;;;;;;;;;;;;;;;;;;1729842;82;42088;-67
2023/07/09 08:14:44;;;;;;;;;;;;;;;;;;1729271;82;49779;-67
2023/07/09 08:17:12;;;;;;;;;;;;;;;;;;1728950;74;41792;-67
2023/07/09 19:23:53;;;;;;;;;;;;;;;;;;1267587;82;2802477;-68
2023/07/09 19:26:25;;;;;;;;;;;;;;;;;;1232952;74;2931922;-69
2023/07/09 19:28:56;;;;;;;;;;;;;;;;;;1233243;74;2927114;-69
2023/07/09 19:31:27;;;;;;;;;;;;;;;;;;1231230;82;2927692;-71
2023/07/09 19:33:58;;;;;;;;;;;;;;;;;;1233830;74;2940794;-69
2023/07/09 19:36:29;;;;;;;;;;;;;;;;;;1234374;82;2931144;-70
2023/07/09 19:39:03;;;;;;;;;;;;;;;;;;1233968;74;2926468;-70
2023/07/09 19:41:34;;;;;;;;;;;;;;;;;;1233609;74;2932380;-69
2023/07/09 19:44:05;;;;;;;;;;;;;;;;;;1233717;74;2925036;-69
2023/07/09 19:46:36;;;;;;;;;;;;;;;;;;1233839;74;2939716;-70
2023/07/09 19:49:08;;;;;;;;;;;;;;;;;;1233187;74;2920639;-68
2023/07/09 19:51:39;;;;;;;;;;;;;;;;;;1234308;74;2928954;-69
2023/07/09 19:54:17;;;;;;;;;;;;;;;;;;1233234;82;2933099;-70
2023/07/09 19:56:49;;;;;;;;;;;;;;;;;;1255229;63;2924426;-69
2023/07/09 19:59:21;;;;;;;;;;;;;;;;;;1233978;74;2922327;-68
2023/07/09 20:01:53;;;;;;;;;;;;;;;;;;1234862;74;2926583;-70
2023/07/09 20:04:24;;;;;;;;;;;;;;;;;;1233929;74;2931522;-69
2023/07/09 20:09:31;;;;;;;2.10;1.90;;;;;;;25.20;91.45;98155.88;1275793;64;2800432;-64
2023/07/09 20:12:05;;;;;;;2.75;2.15;;;;;;;24.85;94.80;98163.97;1224872;75;2923531;-68
2023/07/09 20:14:38;;;;;;;2.10;1.90;;;;;;;24.92;94.71;98162.44;1224815;75;2922921;-66
2023/07/09 20:17:12;;;;;;;2.90;2.60;;;;;;;24.82;95.80;98165.06;1224860;75;2930172;-72
2023/07/09 20:19:46;;;;;;;2.45;2.05;;;;;;;24.71;95.89;98159.88;1223615;75;2924312;-68
2023/07/09 20:22:25;;;;;;;3.10;2.20;;;;;;;24.56;97.16;98164.16;1217331;75;3415818;-68
2023/07/09 20:25:00;;;;;;;2.80;2.50;;;;;;;24.44;98.50;98160.97;1224110;75;2922713;-67
2023/07/09 20:27:33;;;;;;;3.20;2.80;;;;;;;24.33;99.85;98164.13;1224496;75;2946484;-67
2023/07/09 20:30:06;;;;;;;3.15;2.85;;;;;;;24.32;99.50;98159.09;1223662;75;2924008;-71
2023/07/09 20:32:39;;;;;;;3.00;2.70;;;;;;;24.19;100.00;98163.53;1224822;75;2926271;-67
2023/07/09 20:35:22;;;;;;;2.80;2.60;;;;;;;24.12;100.00;98167.06;1224104;75;2922671;-66
2023/07/09 20:37:56;;;;;;;3.00;2.50;;;;;;;24.01;100.00;98165.38;1225053;75;2924351;-68
2023/07/09 20:40:31;;;;;;;2.55;2.35;;;;;;;23.96;100.00;98169.09;1224040;75;2925804;-67
2023/07/09 20:43:04;;;;;;;2.40;2.00;;;;;;;23.96;100.00;98165.56;1224626;75;2931400;-67
2023/07/09 20:45:37;;;;;;;2.70;2.25;;;;;;;23.88;100.00;98173.91;1224754;75;2926572;-67
2023/07/09 20:48:13;;;;;;;2.50;2.10;;;;;;;23.82;100.00;98164.97;1223528;75;2925420;-68
2023/07/09 20:50:46;;;;;;;2.35;2.00;;;;;;;23.78;100.00;98168.13;1224358;75;2928892;-66
2023/07/09 20:53:21;;;;;;;2.35;1.90;;;;;;;23.72;100.00;98169.56;1225013;75;2925735;-69
2023/07/09 20:56:00;;;;;;;2.75;2.20;;;;;;;23.69;100.00;98162.28;1224423;75;2926997;-69
2023/07/09 20:58:33;;;;;;;2.20;2.00;;;;;;;23.54;100.00;98168.56;1224515;75;2919987;-67
2023/07/09 21:01:06;;;;;;;2.55;2.35;;;;;;;23.54;100.00;98169.31;1224818;75;2925306;-67
2023/07/09 21:03:38;;;;;;;3.00;2.40;;;;;;;23.52;100.00;98165.56;1224981;75;2931881;-67
2023/07/09 21:07:33;;;;;;;2.80;2.20;;;;;;;23.40;100.00;98176.31;1303281;64;4803645;-63
2023/07/09 21:10:06;;;;;;;2.05;1.80;;;;;;;23.35;100.00;98171.66;1222937;75;2979181;-67
2023/07/09 21:12:40;;;;;;;3.15;2.10;;;;;;;23.29;100.00;98171.06;1224323;75;2918419;-68
2023/07/09 21:15:13;;;;;;;2.00;1.80;;;;;;;23.28;100.00;98170.34;1225131;75;2920626;-68
2023/07/09 21:17:46;;;;;;;2.25;2.05;;;;;;;23.24;100.00;98175.50;1224559;75;2922480;-67
2023/07/09 21:20:22;;;;;;;2.20;1.90;;;;;;;23.21;100.00;98171.03;1223928;75;2924759;-66
2023/07/09 21:22:58;;;;;;;2.35;1.95;;;;;;;23.13;100.00;98179.34;1225244;75;2922670;-68
2023/07/09 21:25:31;;;;;;;2.55;2.25;;;;;;;23.07;100.00;98169.66;1225050;75;2934361;-66
2023/07/09 21:28:03;;;;;;;3.95;2.10;;;;;;;22.95;100.00;98166.38;1225481;75;2923172;-68
2023/07/09 21:30:36;;;;;;;2.90;2.45;;;;;;;22.91;100.00;98171.56;1224885;75;2920671;-66
2023/07/09 21:33:14;;;;;;;2.30;2.10;;;;;;;22.89;100.00;98174.16;1224268;75;2930070;-68
2023/07/09 21:35:48;;;;;;;2.60;2.10;;;;;;;22.81;100.00;98170.56;1225160;75;2927769;-68
2023/07/09 21:38:26;;;;;;;2.85;2.35;;;;;;;22.71;100.00;98170.31;1224403;75;2921831;-67
2023/07/09 21:40:59;;;;;;;2.70;2.20;;;;;;;22.61;100.00;98181.22;1224832;75;2921599;-67
2023/07/09 21:43:32;;;;;;;2.90;2.60;;;;;;;22.55;100.00;98181.34;1224439;75;2933309;-68
2023/07/09 21:46:05;;;;;;;2.30;2.00;;;;;;;22.58;100.00;98181.53;1223773;75;2957869;-67
2023/07/09 21:48:38;;;;;;;2.80;2.20;;;;;;;22.46;100.00;98181.06;1220483;75;2947077;-70
2023/07/09 21:51:14;;;;;;;2.40;2.20;;;;;;;22.43;100.00;98182.91;1223347;75;2928880;-67
2023/07/09 21:53:50;;;;;;;4.05;3.40;;;;;;;22.32;100.00;98177.59;1221986;75;2985460;-68
2023/07/09 21:56:23;;;;;;;3.00;2.70;;;;;;;22.41;100.00;98173.59;1220107;75;2930791;-68
2023/07/09 21:58:56;;;;;;;2.40;2.15;;;;;;;22.38;100.00;98174.69;1219915;75;2956307;-67
2023/07/09 22:01:33;;;;;;;2.40;2.20;;;;;;;22.32;100.00;98180.38;1220610;75;2923700;-67
2023/07/09 22:04:18;;;;;;;3.10;2.20;;;;;;;22.38;100.00;98172.66;1222106;75;2937451;-68
2023/07/09 22:06:52;;;;;;;2.80;2.00;;;;;;;22.31;100.00;98171.28;1222005;75;2924901;-67
2023/07/09 22:09:28;;;;;;;;;;;;;;;22.22;100.00;98180.09;1212528;75;3383771;-68
2023/07/09 22:12:01;;;;;;;2.25;2.05;;;;;;;22.25;100.00;98176.25;1224895;75;2926807;-68
2023/07/09 22:14:34;;;;;;;2.20;1.80;;;;;;;22.27;100.00;98176.47;1224973;67;2920013;-67
2023/07/09 22:17:08;;;;;;;2.55;1.95;;;;;;;22.12;100.00;98167.91;1225064;75;2926042;-70
2023/07/09 22:19:40;;;;;;;2.25;2.00;;;;;;;22.07;100.00;98177.91;1223600;75;2925027;-69
2023/07/09 22:22:15;;;;;;;2.20;2.00;;;;;;;22.08;100.00;98173.84;1222998;75;2931217;-68
2023/07/09 22:24:51;;;;;;;2.00;1.80;;;;;;;21.99;100.00;98174.28;1223705;75;2930611;-71
2023/07/09 22:27:24;;;;;;;2.55;2.30;;;;;;;21.94;100.00;98177.22;1224049;75;2920280;-69
2023/07/09 22:29:57;;;;;;;2.90;2.00;;;;;;;21.96;100.00;98175.38;1223083;75;2920306;-70
2023/07/09 22:32:30;;;;;;;2.45;2.10;;;;;;;21.88;100.00;98175.28;1224018;75;2928368;-68
2023/07/09 22:35:07;;;;;;;2.65;2.20;;;;;;;21.86;100.00;98182.69;1224744;75;2930429;-69
2023/07/09 22:37:42;;;;;;;2.95;2.35;;;;;;;21.82;100.00;98177.47;1222959;75;2926466;-71
2023/07/09 22:40:27;;;;;;;2.60;2.30;;;;;;;21.83;100.00;98169.84;1223324;75;2932276;-67
2023/07/09 22:43:01;;;;;;;2.35;2.15;;;;;;;21.69;100.00;98174.69;1221653;75;2920744;-69
2023/07/09 22:45:34;;;;;;;2.75;2.30;;;;;;;21.57;100.00;98182.53;1224002;75;2919762;-70
2023/07/09 22:48:08;;;;;;;3.55;2.30;;;;;;;21.68;100.00;98176.00;1224485;75;2923337;-67
2023/07/09 22:50:43;;;;;;;2.05;1.75;;;;;;;21.63;100.00;98176.88;1223994;75;2934308;-69
2023/07/09 22:53:21;;;;;;;2.00;1.80;;;;;;;21.60;100.00;98180.72;1224002;75;2921480;-69
2023/07/09 22:55:56;;;;;;;;;;;;;;;21.64;100.00;98176.31;1224588;75;2929032;-71
2023/07/09 22:58:29;;;;;;;2.55;2.15;;;;;;;21.55;100.00;98182.34;1223284;75;2920067;-70
2023/07/09 23:01:12;;;;;;;2.75;2.10;;;;;;;21.48;100.00;98183.75;1223288;75;2943619;-69
2023/07/09 23:03:47;;;;;;;2.05;1.85;;;;;;;21.53;100.00;98178.59;1224480;75;2926453;-67
2023/07/09 23:06:23;;;;;;;2.00;1.55;;;;;;;21.39;100.00;98178.63;1223901;75;2921111;-69
2023/07/09 23:08:58;;;;;;;2.25;1.95;;;;;;;21.41;100.00;98178.09;1222026;75;2922080;-68
2023/07/09 23:11:40;;;;;;;2.25;2.00;;;;;;;21.33;100.00;98175.16;1223009;75;2929047;-71
2023/07/09 23:14:21;;;;;;;2.20;1.85;;;;;;;21.24;100.00;98181.19;1223456;75;2934055;-68
2023/07/09 23:16:58;;;;;;;3.90;2.40;;;;;;;21.13;100.00;98187.69;1223931;75;2924169;-67
2023/07/09 23:19:33;;;;;;;2.95;2.60;;;;;;;21.17;100.00;98176.25;1223117;75;2926070;-69
2023/07/09 23:22:06;;;;;;;2.45;2.25;;;;;;;21.03;100.00;98178.28;1224362;75;2922753;-66
2023/07/09 23:24:39;;;;;;;3.00;2.40;;;;;;;21.13;100.00;98175.81;1223802;75;2925523;-66
2023/07/09 23:27:20;;;;;;;1.95;1.75;;;;;;;21.12;100.00;98172.28;1223637;75;2932112;-69
2023/07/09 23:29:53;;;;;;;3.90;2.90;;;;;;;20.68;100.00;98176.63;1223538;75;2931129;-70
2023/07/09 23:32:26;;;;;;;4.65;3.80;;;;;;;20.67;100.00;98177.94;1224031;75;2923539;-69
2023/07/09 23:34:59;;;;;;;4.15;3.20;;;;;;;20.57;100.00;98167.22;1223553;75;2931268;-69
2023/07/09 23:37:32;;;;;;;4.05;3.65;;;;;;;20.61;100.00;98169.66;1223107;67;2929016;-69
2023/07/09 23:40:05;;;;;;;4.60;3.35;;;;;;;20.65;100.00;98170.09;1223408;75;2923758;-67
2023/07/09 23:42:41;;;;;;;3.65;3.20;;;;;;;20.77;100.00;98179.00;1221897;75;2976082;-68
2023/07/09 23:45:20;;;;;;;4.20;3.50;;;;;;;20.57;100.00;98175.56;1223292;75;2929021;-67
2023/07/09 23:47:57;;;;;;;3.55;2.80;;;;;;;20.75;100.00;98178.78;1223662;75;2922434;-70
2023/07/09 23:50:30;;;;;;;3.10;2.80;;;;;;;20.77;100.00;98171.41;1222711;75;2932373;-68
2023/07/09 23:53:04;;;;;;;2.40;2.20;;;;;;;20.75;100.00;98176.00;1223631;75;2926260;-69
2023/07/09 23:55:36;;;;;;;3.00;2.70;;;;;;;20.63;100.00;98173.41;1223933;75;2927854;-70
2023/07/09 23:58:13;;;;;;;2.95;2.50;;;;;;;20.69;100.00;98169.81;1223256;75;2926223;-65
